sensor_id;sensor_type;location;lat;lon;timestamp;P1;durP1;ratioP1;P2;durP2;ratioP2
80732;SDS011;70130;44.534;18.678;2024-03-06T00:00:05;122.00;;;65.57;;
80732;SDS011;70130;44.534;18.678;2024-03-06T00:02:34;119.82;;;61.38;;
80732;SDS011;70130;44.534;18.678;2024-03-06T00:05:00;125.05;;;61.58;;
80732;SDS011;70130;44.534;18.678;2024-03-06T00:07:26;110.70;;;56.17;;
80732;SDS011;70130;44.534;18.678;2024-03-06T00:09:52;113.57;;;53.67;;
80732;SDS011;70130;44.534;18.678;2024-03-06T00:12:18;108.30;;;53.10;;
80732;SDS011;70130;44.534;18.678;2024-03-06T00:14:44;110.18;;;56.38;;
80732;SDS011;70130;44.534;18.678;2024-03-06T00:17:09;106.20;;;53.70;;
80732;SDS011;70130;44.534;18.678;2024-03-06T00:19:35;102.30;;;51.03;;
80732;SDS011;70130;44.534;18.678;2024-03-06T00:22:01;100.10;;;52.03;;
80732;SDS011;70130;44.534;18.678;2024-03-06T00:24:27;113.25;;;57.03;;
80732;SDS011;70130;44.534;18.678;2024-03-06T00:26:53;108.47;;;55.40;;
80732;SDS011;70130;44.534;18.678;2024-03-06T00:29:19;109.07;;;55.53;;
80732;SDS011;70130;44.534;18.678;2024-03-06T00:31:45;109.80;;;51.08;;
80732;SDS011;70130;44.534;18.678;2024-03-06T00:34:11;97.90;;;48.38;;
80732;SDS011;70130;44.534;18.678;2024-03-06T00:36:41;95.97;;;47.47;;
80732;SDS011;70130;44.534;18.678;2024-03-06T00:39:07;99.47;;;47.95;;
80732;SDS011;70130;44.534;18.678;2024-03-06T00:41:33;94.78;;;45.95;;
80732;SDS011;70130;44.534;18.678;2024-03-06T00:44:00;92.72;;;44.72;;
80732;SDS011;70130;44.534;18.678;2024-03-06T00:46:25;111.65;;;56.92;;
80732;SDS011;70130;44.534;18.678;2024-03-06T00:48:51;106.15;;;52.35;;
80732;SDS011;70130;44.534;18.678;2024-03-06T00:51:16;102.15;;;51.92;;
80732;SDS011;70130;44.534;18.678;2024-03-06T00:53:42;107.95;;;52.13;;
80732;SDS011;70130;44.534;18.678;2024-03-06T00:56:08;104.57;;;49.83;;
80732;SDS011;70130;44.534;18.678;2024-03-06T00:58:34;109.75;;;55.83;;
80732;SDS011;70130;44.534;18.678;2024-03-06T01:00:59;124.95;;;59.17;;
80732;SDS011;70130;44.534;18.678;2024-03-06T01:03:25;116.15;;;57.22;;
80732;SDS011;70130;44.534;18.678;2024-03-06T01:05:51;123.07;;;58.88;;
80732;SDS011;70130;44.534;18.678;2024-03-06T01:08:21;119.20;;;57.15;;
80732;SDS011;70130;44.534;18.678;2024-03-06T01:10:47;118.93;;;58.70;;
80732;SDS011;70130;44.534;18.678;2024-03-06T01:13:13;107.70;;;53.17;;
80732;SDS011;70130;44.534;18.678;2024-03-06T01:15:38;106.93;;;49.38;;
80732;SDS011;70130;44.534;18.678;2024-03-06T01:18:04;100.22;;;49.65;;
80732;SDS011;70130;44.534;18.678;2024-03-06T01:20:30;100.00;;;47.17;;
80732;SDS011;70130;44.534;18.678;2024-03-06T01:22:55;105.70;;;50.22;;
80732;SDS011;70130;44.534;18.678;2024-03-06T01:25:21;91.32;;;43.70;;
80732;SDS011;70130;44.534;18.678;2024-03-06T01:27:50;89.47;;;45.03;;
80732;SDS011;70130;44.534;18.678;2024-03-06T01:30:15;85.38;;;42.72;;
80732;SDS011;70130;44.534;18.678;2024-03-06T01:32:41;86.00;;;42.65;;
80732;SDS011;70130;44.534;18.678;2024-03-06T01:35:06;89.65;;;43.83;;
80732;SDS011;70130;44.534;18.678;2024-03-06T01:37:32;84.97;;;42.40;;
80732;SDS011;70130;44.534;18.678;2024-03-06T01:39:58;78.00;;;39.47;;
80732;SDS011;70130;44.534;18.678;2024-03-06T01:42:23;88.57;;;42.92;;
80732;SDS011;70130;44.534;18.678;2024-03-06T01:44:49;104.32;;;49.28;;
80732;SDS011;70130;44.534;18.678;2024-03-06T01:47:15;110.70;;;49.97;;
80732;SDS011;70130;44.534;18.678;2024-03-06T01:49:41;106.35;;;49.67;;
80732;SDS011;70130;44.534;18.678;2024-03-06T01:52:08;104.07;;;49.65;;
80732;SDS011;70130;44.534;18.678;2024-03-06T01:54:37;102.07;;;49.50;;
80732;SDS011;70130;44.534;18.678;2024-03-06T01:57:03;97.85;;;48.42;;
80732;SDS011;70130;44.534;18.678;2024-03-06T01:59:31;95.55;;;48.33;;
80732;SDS011;70130;44.534;18.678;2024-03-06T02:01:57;90.75;;;43.83;;
80732;SDS011;70130;44.534;18.678;2024-03-06T02:04:23;84.32;;;40.95;;
80732;SDS011;70130;44.534;18.678;2024-03-06T02:06:52;69.72;;;37.03;;
80732;SDS011;70130;44.534;18.678;2024-03-06T02:09:17;82.93;;;38.38;;
80732;SDS011;70130;44.534;18.678;2024-03-06T02:11:44;78.88;;;39.40;;
80732;SDS011;70130;44.534;18.678;2024-03-06T02:14:10;97.72;;;46.28;;
80732;SDS011;70130;44.534;18.678;2024-03-06T02:16:36;97.13;;;47.45;;
80732;SDS011;70130;44.534;18.678;2024-03-06T02:19:04;89.85;;;45.88;;
80732;SDS011;70130;44.534;18.678;2024-03-06T02:21:30;71.47;;;37.70;;
80732;SDS011;70130;44.534;18.678;2024-03-06T02:23:56;78.40;;;38.13;;
80732;SDS011;70130;44.534;18.678;2024-03-06T02:26:22;75.65;;;36.85;;
80732;SDS011;70130;44.534;18.678;2024-03-06T02:31:15;87.95;;;42.65;;
80732;SDS011;70130;44.534;18.678;2024-03-06T02:33:42;89.07;;;44.88;;
80732;SDS011;70130;44.534;18.678;2024-03-06T02:36:10;85.57;;;42.97;;
80732;SDS011;70130;44.534;18.678;2024-03-06T02:38:36;76.18;;;39.83;;
80732;SDS011;70130;44.534;18.678;2024-03-06T02:41:02;75.25;;;38.35;;
80732;SDS011;70130;44.534;18.678;2024-03-06T02:43:28;76.38;;;39.08;;
80732;SDS011;70130;44.534;18.678;2024-03-06T02:45:53;79.63;;;40.45;;
80732;SDS011;70130;44.534;18.678;2024-03-06T02:48:19;80.57;;;39.25;;
80732;SDS011;70130;44.534;18.678;2024-03-06T02:50:45;79.97;;;42.33;;
80732;SDS011;70130;44.534;18.678;2024-03-06T02:53:10;80.43;;;40.38;;
80732;SDS011;70130;44.534;18.678;2024-03-06T02:55:36;80.20;;;41.60;;
80732;SDS011;70130;44.534;18.678;2024-03-06T02:58:02;84.15;;;41.05;;
80732;SDS011;70130;44.534;18.678;2024-03-06T03:00:28;72.50;;;38.53;;
80732;SDS011;70130;44.534;18.678;2024-03-06T03:02:54;72.22;;;39.28;;
80732;SDS011;70130;44.534;18.678;2024-03-06T03:05:19;73.15;;;38.85;;
80732;SDS011;70130;44.534;18.678;2024-03-06T03:07:45;75.07;;;38.88;;
80732;SDS011;70130;44.534;18.678;2024-03-06T03:10:10;74.60;;;37.38;;
80732;SDS011;70130;44.534;18.678;2024-03-06T03:12:40;81.50;;;40.90;;
80732;SDS011;70130;44.534;18.678;2024-03-06T03:15:06;78.30;;;39.60;;
80732;SDS011;70130;44.534;18.678;2024-03-06T03:17:32;75.50;;;37.70;;
80732;SDS011;70130;44.534;18.678;2024-03-06T03:19:59;81.18;;;40.38;;
80732;SDS011;70130;44.534;18.678;2024-03-06T03:22:25;77.18;;;39.95;;
80732;SDS011;70130;44.534;18.678;2024-03-06T03:24:51;74.97;;;39.17;;
80732;SDS011;70130;44.534;18.678;2024-03-06T03:27:16;75.80;;;39.33;;
80732;SDS011;70130;44.534;18.678;2024-03-06T03:29:42;78.15;;;39.42;;
80732;SDS011;70130;44.534;18.678;2024-03-06T03:32:07;80.75;;;39.20;;
80732;SDS011;70130;44.534;18.678;2024-03-06T03:34:36;77.80;;;38.58;;
80732;SDS011;70130;44.534;18.678;2024-03-06T03:37:02;72.88;;;37.10;;
80732;SDS011;70130;44.534;18.678;2024-03-06T03:39:27;80.68;;;39.88;;
80732;SDS011;70130;44.534;18.678;2024-03-06T03:41:53;66.78;;;36.95;;
80732;SDS011;70130;44.534;18.678;2024-03-06T03:44:19;69.60;;;36.22;;
80732;SDS011;70130;44.534;18.678;2024-03-06T03:46:45;74.72;;;37.70;;
80732;SDS011;70130;44.534;18.678;2024-03-06T03:49:11;71.93;;;37.28;;
80732;SDS011;70130;44.534;18.678;2024-03-06T03:51:37;65.55;;;34.75;;
80732;SDS011;70130;44.534;18.678;2024-03-06T03:54:04;67.00;;;31.48;;
80732;SDS011;70130;44.534;18.678;2024-03-06T03:56:30;52.03;;;28.60;;
80732;SDS011;70130;44.534;18.678;2024-03-06T03:58:57;55.78;;;29.30;;
80732;SDS011;70130;44.534;18.678;2024-03-06T04:01:23;52.45;;;28.33;;
80732;SDS011;70130;44.534;18.678;2024-03-06T04:03:49;55.05;;;28.92;;
80732;SDS011;70130;44.534;18.678;2024-03-06T04:06:16;70.10;;;33.70;;
80732;SDS011;70130;44.534;18.678;2024-03-06T04:08:41;64.35;;;34.85;;
80732;SDS011;70130;44.534;18.678;2024-03-06T04:11:07;76.80;;;36.53;;
80732;SDS011;70130;44.534;18.678;2024-03-06T04:13:36;73.65;;;37.28;;
80732;SDS011;70130;44.534;18.678;2024-03-06T04:16:03;83.38;;;40.10;;
80732;SDS011;70130;44.534;18.678;2024-03-06T04:18:30;74.75;;;39.35;;
80732;SDS011;70130;44.534;18.678;2024-03-06T04:21:06;75.28;;;39.75;;
80732;SDS011;70130;44.534;18.678;2024-03-06T04:23:32;74.65;;;38.42;;
80732;SDS011;70130;44.534;18.678;2024-03-06T04:26:02;72.88;;;36.40;;
80732;SDS011;70130;44.534;18.678;2024-03-06T04:28:28;66.03;;;32.63;;
80732;SDS011;70130;44.534;18.678;2024-03-06T04:30:55;59.03;;;30.75;;
80732;SDS011;70130;44.534;18.678;2024-03-06T04:33:21;63.70;;;32.35;;
80732;SDS011;70130;44.534;18.678;2024-03-06T04:35:47;59.67;;;30.73;;
80732;SDS011;70130;44.534;18.678;2024-03-06T04:38:13;58.05;;;31.40;;
80732;SDS011;70130;44.534;18.678;2024-03-06T04:40:39;61.08;;;31.70;;
80732;SDS011;70130;44.534;18.678;2024-03-06T04:43:04;63.05;;;32.35;;
80732;SDS011;70130;44.534;18.678;2024-03-06T04:45:31;68.78;;;34.80;;
80732;SDS011;70130;44.534;18.678;2024-03-06T04:47:56;71.57;;;36.22;;
80732;SDS011;70130;44.534;18.678;2024-03-06T04:50:22;76.90;;;38.08;;
80732;SDS011;70130;44.534;18.678;2024-03-06T04:52:47;62.65;;;33.75;;
80732;SDS011;70130;44.534;18.678;2024-03-06T04:55:13;72.43;;;36.40;;
80732;SDS011;70130;44.534;18.678;2024-03-06T04:57:42;69.63;;;35.38;;
80732;SDS011;70130;44.534;18.678;2024-03-06T05:00:11;71.35;;;36.42;;
80732;SDS011;70130;44.534;18.678;2024-03-06T05:02:37;71.35;;;35.30;;
80732;SDS011;70130;44.534;18.678;2024-03-06T05:05:04;79.10;;;40.50;;
80732;SDS011;70130;44.534;18.678;2024-03-06T05:07:30;71.88;;;36.78;;
80732;SDS011;70130;44.534;18.678;2024-03-06T05:09:57;66.50;;;33.42;;
80732;SDS011;70130;44.534;18.678;2024-03-06T05:12:24;66.13;;;31.95;;
80732;SDS011;70130;44.534;18.678;2024-03-06T05:14:53;64.95;;;34.42;;
80732;SDS011;70130;44.534;18.678;2024-03-06T05:17:19;70.57;;;34.13;;
80732;SDS011;70130;44.534;18.678;2024-03-06T05:19:45;59.92;;;31.85;;
80732;SDS011;70130;44.534;18.678;2024-03-06T05:22:12;62.35;;;32.88;;
80732;SDS011;70130;44.534;18.678;2024-03-06T05:24:39;63.92;;;33.15;;
80732;SDS011;70130;44.534;18.678;2024-03-06T05:27:05;67.00;;;32.25;;
80732;SDS011;70130;44.534;18.678;2024-03-06T05:29:31;63.80;;;31.17;;
80732;SDS011;70130;44.534;18.678;2024-03-06T05:31:57;58.95;;;30.13;;
80732;SDS011;70130;44.534;18.678;2024-03-06T05:34:22;67.15;;;35.58;;
80732;SDS011;70130;44.534;18.678;2024-03-06T05:36:48;69.43;;;34.00;;
80732;SDS011;70130;44.534;18.678;2024-03-06T05:39:14;59.38;;;32.03;;
80732;SDS011;70130;44.534;18.678;2024-03-06T05:41:40;72.25;;;36.17;;
80732;SDS011;70130;44.534;18.678;2024-03-06T05:44:07;70.28;;;36.90;;
80732;SDS011;70130;44.534;18.678;2024-03-06T05:46:33;84.78;;;40.78;;
80732;SDS011;70130;44.534;18.678;2024-03-06T05:48:59;88.10;;;43.03;;
80732;SDS011;70130;44.534;18.678;2024-03-06T05:51:24;87.93;;;44.45;;
80732;SDS011;70130;44.534;18.678;2024-03-06T05:53:50;92.50;;;46.00;;
80732;SDS011;70130;44.534;18.678;2024-03-06T05:56:19;78.85;;;37.78;;
80732;SDS011;70130;44.534;18.678;2024-03-06T05:58:45;78.70;;;37.53;;
80732;SDS011;70130;44.534;18.678;2024-03-06T06:01:15;85.75;;;38.17;;
80732;SDS011;70130;44.534;18.678;2024-03-06T06:03:45;74.82;;;37.83;;
80732;SDS011;70130;44.534;18.678;2024-03-06T06:06:14;72.15;;;34.80;;
80732;SDS011;70130;44.534;18.678;2024-03-06T06:08:40;70.72;;;36.20;;
80732;SDS011;70130;44.534;18.678;2024-03-06T06:11:05;74.35;;;34.85;;
80732;SDS011;70130;44.534;18.678;2024-03-06T06:13:31;75.03;;;34.60;;
80732;SDS011;70130;44.534;18.678;2024-03-06T06:16:00;78.43;;;36.97;;
80732;SDS011;70130;44.534;18.678;2024-03-06T06:18:28;82.85;;;39.95;;
80732;SDS011;70130;44.534;18.678;2024-03-06T06:20:54;81.93;;;38.22;;
80732;SDS011;70130;44.534;18.678;2024-03-06T06:23:19;80.15;;;41.15;;
80732;SDS011;70130;44.534;18.678;2024-03-06T06:25:45;88.95;;;44.97;;
80732;SDS011;70130;44.534;18.678;2024-03-06T06:28:11;94.38;;;46.75;;
80732;SDS011;70130;44.534;18.678;2024-03-06T06:30:37;88.82;;;45.15;;
80732;SDS011;70130;44.534;18.678;2024-03-06T06:33:03;86.72;;;41.03;;
80732;SDS011;70130;44.534;18.678;2024-03-06T06:35:29;89.72;;;41.60;;
80732;SDS011;70130;44.534;18.678;2024-03-06T06:37:55;90.03;;;42.80;;
80732;SDS011;70130;44.534;18.678;2024-03-06T06:40:21;93.45;;;45.40;;
80732;SDS011;70130;44.534;18.678;2024-03-06T06:42:47;95.47;;;47.00;;
80732;SDS011;70130;44.534;18.678;2024-03-06T06:45:17;81.72;;;40.85;;
80732;SDS011;70130;44.534;18.678;2024-03-06T06:47:44;78.57;;;38.88;;
80732;SDS011;70130;44.534;18.678;2024-03-06T06:50:10;73.13;;;36.85;;
80732;SDS011;70130;44.534;18.678;2024-03-06T06:52:37;78.40;;;37.58;;
80732;SDS011;70130;44.534;18.678;2024-03-06T06:55:03;79.68;;;38.75;;
80732;SDS011;70130;44.534;18.678;2024-03-06T06:57:30;85.15;;;39.08;;
80732;SDS011;70130;44.534;18.678;2024-03-06T06:59:58;82.93;;;38.97;;
80732;SDS011;70130;44.534;18.678;2024-03-06T07:02:24;75.97;;;37.58;;
80732;SDS011;70130;44.534;18.678;2024-03-06T07:04:50;73.15;;;37.33;;
80732;SDS011;70130;44.534;18.678;2024-03-06T07:07:16;71.88;;;37.35;;
80732;SDS011;70130;44.534;18.678;2024-03-06T07:09:42;72.30;;;37.08;;
80732;SDS011;70130;44.534;18.678;2024-03-06T07:12:08;79.50;;;38.17;;
80732;SDS011;70130;44.534;18.678;2024-03-06T07:14:34;83.93;;;41.70;;
80732;SDS011;70130;44.534;18.678;2024-03-06T07:17:00;78.28;;;37.45;;
80732;SDS011;70130;44.534;18.678;2024-03-06T07:19:25;72.38;;;39.03;;
80732;SDS011;70130;44.534;18.678;2024-03-06T07:21:51;81.85;;;39.78;;
80732;SDS011;70130;44.534;18.678;2024-03-06T07:24:18;83.38;;;39.83;;
80732;SDS011;70130;44.534;18.678;2024-03-06T07:26:44;84.22;;;40.85;;
80732;SDS011;70130;44.534;18.678;2024-03-06T07:29:10;81.60;;;38.88;;
80732;SDS011;70130;44.534;18.678;2024-03-06T07:31:43;77.18;;;39.33;;
80732;SDS011;70130;44.534;18.678;2024-03-06T07:34:12;75.68;;;40.20;;
80732;SDS011;70130;44.534;18.678;2024-03-06T07:36:39;80.53;;;41.03;;
80732;SDS011;70130;44.534;18.678;2024-03-06T07:39:05;79.68;;;42.58;;
80732;SDS011;70130;44.534;18.678;2024-03-06T07:41:32;78.75;;;38.88;;
80732;SDS011;70130;44.534;18.678;2024-03-06T07:43:58;75.75;;;36.70;;
80732;SDS011;70130;44.534;18.678;2024-03-06T07:46:25;60.88;;;33.22;;
80732;SDS011;70130;44.534;18.678;2024-03-06T07:48:51;66.25;;;35.05;;
80732;SDS011;70130;44.534;18.678;2024-03-06T07:51:17;60.97;;;31.63;;
80732;SDS011;70130;44.534;18.678;2024-03-06T07:53:43;62.05;;;29.65;;
80732;SDS011;70130;44.534;18.678;2024-03-06T07:56:11;62.58;;;29.42;;
80732;SDS011;70130;44.534;18.678;2024-03-06T07:58:37;57.05;;;29.08;;
80732;SDS011;70130;44.534;18.678;2024-03-06T08:01:03;67.03;;;31.30;;
80732;SDS011;70130;44.534;18.678;2024-03-06T08:03:29;63.72;;;30.13;;
80732;SDS011;70130;44.534;18.678;2024-03-06T08:05:55;57.47;;;29.27;;
80732;SDS011;70130;44.534;18.678;2024-03-06T08:08:20;54.65;;;30.58;;
80732;SDS011;70130;44.534;18.678;2024-03-06T08:10:46;56.47;;;29.98;;
80732;SDS011;70130;44.534;18.678;2024-03-06T08:13:12;60.17;;;30.55;;
80732;SDS011;70130;44.534;18.678;2024-03-06T08:15:38;62.13;;;33.30;;
80732;SDS011;70130;44.534;18.678;2024-03-06T08:18:05;53.38;;;30.35;;
80732;SDS011;70130;44.534;18.678;2024-03-06T08:20:31;57.28;;;30.42;;
80732;SDS011;70130;44.534;18.678;2024-03-06T08:22:58;54.28;;;29.27;;
80732;SDS011;70130;44.534;18.678;2024-03-06T08:25:23;58.88;;;28.67;;
80732;SDS011;70130;44.534;18.678;2024-03-06T08:27:49;52.90;;;30.25;;
80732;SDS011;70130;44.534;18.678;2024-03-06T08:30:15;58.50;;;31.60;;
80732;SDS011;70130;44.534;18.678;2024-03-06T08:32:41;55.85;;;31.33;;
80732;SDS011;70130;44.534;18.678;2024-03-06T08:35:09;59.47;;;31.90;;
80732;SDS011;70130;44.534;18.678;2024-03-06T08:37:39;71.13;;;35.97;;
80732;SDS011;70130;44.534;18.678;2024-03-06T08:40:09;64.07;;;34.88;;
80732;SDS011;70130;44.534;18.678;2024-03-06T08:42:49;70.82;;;34.47;;
80732;SDS011;70130;44.534;18.678;2024-03-06T08:45:18;66.60;;;35.13;;
80732;SDS011;70130;44.534;18.678;2024-03-06T08:47:44;59.13;;;32.63;;
80732;SDS011;70130;44.534;18.678;2024-03-06T08:50:11;62.80;;;31.63;;
80732;SDS011;70130;44.534;18.678;2024-03-06T08:52:37;57.45;;;31.60;;
80732;SDS011;70130;44.534;18.678;2024-03-06T08:55:04;60.65;;;33.45;;
80732;SDS011;70130;44.534;18.678;2024-03-06T08:57:31;62.13;;;31.70;;
80732;SDS011;70130;44.534;18.678;2024-03-06T08:59:57;61.00;;;31.40;;
80732;SDS011;70130;44.534;18.678;2024-03-06T09:02:23;69.80;;;35.17;;
80732;SDS011;70130;44.534;18.678;2024-03-06T09:04:49;67.40;;;35.95;;
80732;SDS011;70130;44.534;18.678;2024-03-06T09:07:16;72.32;;;36.90;;
80732;SDS011;70130;44.534;18.678;2024-03-06T09:09:42;70.93;;;35.65;;
80732;SDS011;70130;44.534;18.678;2024-03-06T09:12:09;60.90;;;30.70;;
80732;SDS011;70130;44.534;18.678;2024-03-06T09:14:36;56.85;;;29.00;;
80732;SDS011;70130;44.534;18.678;2024-03-06T09:17:03;52.63;;;29.08;;
80732;SDS011;70130;44.534;18.678;2024-03-06T09:19:34;54.17;;;30.15;;
80732;SDS011;70130;44.534;18.678;2024-03-06T09:22:00;52.42;;;29.13;;
80732;SDS011;70130;44.534;18.678;2024-03-06T09:24:26;60.30;;;29.92;;
80732;SDS011;70130;44.534;18.678;2024-03-06T09:26:52;56.90;;;29.55;;
80732;SDS011;70130;44.534;18.678;2024-03-06T09:29:18;59.33;;;31.33;;
80732;SDS011;70130;44.534;18.678;2024-03-06T09:31:44;54.85;;;29.70;;
80732;SDS011;70130;44.534;18.678;2024-03-06T09:34:10;56.50;;;29.48;;
80732;SDS011;70130;44.534;18.678;2024-03-06T09:36:39;47.70;;;27.95;;
80732;SDS011;70130;44.534;18.678;2024-03-06T09:39:13;51.85;;;27.70;;
80732;SDS011;70130;44.534;18.678;2024-03-06T09:41:52;55.58;;;29.77;;
80732;SDS011;70130;44.534;18.678;2024-03-06T09:44:20;56.60;;;28.02;;
80732;SDS011;70130;44.534;18.678;2024-03-06T09:46:47;50.88;;;28.13;;
80732;SDS011;70130;44.534;18.678;2024-03-06T09:49:14;49.60;;;25.00;;
80732;SDS011;70130;44.534;18.678;2024-03-06T09:51:45;50.88;;;27.40;;
80732;SDS011;70130;44.534;18.678;2024-03-06T09:54:15;51.90;;;26.08;;
80732;SDS011;70130;44.534;18.678;2024-03-06T09:56:42;46.83;;;24.03;;
80732;SDS011;70130;44.534;18.678;2024-03-06T09:59:10;47.85;;;25.63;;
80732;SDS011;70130;44.534;18.678;2024-03-06T10:01:55;40.78;;;23.75;;
80732;SDS011;70130;44.534;18.678;2024-03-06T10:04:26;41.25;;;21.95;;
80732;SDS011;70130;44.534;18.678;2024-03-06T10:06:54;36.03;;;19.25;;
80732;SDS011;70130;44.534;18.678;2024-03-06T10:09:21;33.78;;;19.40;;
80732;SDS011;70130;44.534;18.678;2024-03-06T10:11:47;39.80;;;23.20;;
80732;SDS011;70130;44.534;18.678;2024-03-06T10:14:13;43.67;;;19.45;;
80732;SDS011;70130;44.534;18.678;2024-03-06T10:19:44;35.85;;;21.17;;
80732;SDS011;70130;44.534;18.678;2024-03-06T10:22:16;36.60;;;20.50;;
80732;SDS011;70130;44.534;18.678;2024-03-06T10:24:42;37.72;;;21.33;;
80732;SDS011;70130;44.534;18.678;2024-03-06T10:27:13;40.65;;;20.33;;
80732;SDS011;70130;44.534;18.678;2024-03-06T10:29:41;40.70;;;21.00;;
80732;SDS011;70130;44.534;18.678;2024-03-06T10:32:07;33.88;;;18.90;;
80732;SDS011;70130;44.534;18.678;2024-03-06T10:34:33;29.50;;;17.95;;
80732;SDS011;70130;44.534;18.678;2024-03-06T10:36:59;39.40;;;21.17;;
80732;SDS011;70130;44.534;18.678;2024-03-06T10:39:32;33.88;;;18.38;;
80732;SDS011;70130;44.534;18.678;2024-03-06T10:42:03;31.35;;;18.30;;
80732;SDS011;70130;44.534;18.678;2024-03-06T10:44:32;32.40;;;17.65;;
80732;SDS011;70130;44.534;18.678;2024-03-06T10:47:00;29.75;;;16.05;;
80732;SDS011;70130;44.534;18.678;2024-03-06T10:49:31;32.97;;;16.80;;
80732;SDS011;70130;44.534;18.678;2024-03-06T10:52:03;29.73;;;16.08;;
80732;SDS011;70130;44.534;18.678;2024-03-06T10:54:33;28.33;;;16.98;;
80732;SDS011;70130;44.534;18.678;2024-03-06T10:57:04;35.20;;;18.25;;
80732;SDS011;70130;44.534;18.678;2024-03-06T10:59:30;33.13;;;17.20;;
80732;SDS011;70130;44.534;18.678;2024-03-06T11:01:56;27.70;;;15.63;;
80732;SDS011;70130;44.534;18.678;2024-03-06T11:04:26;29.58;;;15.80;;
80732;SDS011;70130;44.534;18.678;2024-03-06T11:06:54;24.05;;;14.60;;
80732;SDS011;70130;44.534;18.678;2024-03-06T11:09:20;25.70;;;15.13;;
80732;SDS011;70130;44.534;18.678;2024-03-06T11:11:50;31.98;;;15.18;;
80732;SDS011;70130;44.534;18.678;2024-03-06T11:14:17;25.27;;;15.43;;
80732;SDS011;70130;44.534;18.678;2024-03-06T11:17:00;34.60;;;13.80;;
80732;SDS011;70130;44.534;18.678;2024-03-06T11:19:31;19.58;;;11.38;;
80732;SDS011;70130;44.534;18.678;2024-03-06T11:21:57;24.48;;;12.75;;
80732;SDS011;70130;44.534;18.678;2024-03-06T11:24:33;18.02;;;9.70;;
80732;SDS011;70130;44.534;18.678;2024-03-06T11:27:02;14.70;;;6.80;;
80732;SDS011;70130;44.534;18.678;2024-03-06T11:32:57;18.65;;;5.85;;
80732;SDS011;70130;44.534;18.678;2024-03-06T11:35:24;15.73;;;8.02;;
80732;SDS011;70130;44.534;18.678;2024-03-06T11:37:50;12.73;;;6.07;;
80732;SDS011;70130;44.534;18.678;2024-03-06T11:40:22;14.57;;;7.25;;
80732;SDS011;70130;44.534;18.678;2024-03-06T11:42:49;16.70;;;8.80;;
80732;SDS011;70130;44.534;18.678;2024-03-06T11:45:18;19.67;;;11.88;;
80732;SDS011;70130;44.534;18.678;2024-03-06T11:47:57;18.50;;;10.85;;
80732;SDS011;70130;44.534;18.678;2024-03-06T11:50:25;28.58;;;13.20;;
80732;SDS011;70130;44.534;18.678;2024-03-06T11:52:53;25.05;;;14.48;;
80732;SDS011;70130;44.534;18.678;2024-03-06T11:55:21;26.13;;;15.48;;
80732;SDS011;70130;44.534;18.678;2024-03-06T11:57:47;25.77;;;15.32;;
80732;SDS011;70130;44.534;18.678;2024-03-06T12:00:13;26.63;;;14.90;;
80732;SDS011;70130;44.534;18.678;2024-03-06T12:02:40;25.85;;;16.40;;
80732;SDS011;70130;44.534;18.678;2024-03-06T12:05:07;27.83;;;16.58;;
80732;SDS011;70130;44.534;18.678;2024-03-06T12:10:36;31.55;;;16.48;;
80732;SDS011;70130;44.534;18.678;2024-03-06T12:13:03;26.20;;;15.13;;
80732;SDS011;70130;44.534;18.678;2024-03-06T12:15:29;26.88;;;14.77;;
80732;SDS011;70130;44.534;18.678;2024-03-06T12:17:55;24.83;;;14.05;;
80732;SDS011;70130;44.534;18.678;2024-03-06T12:20:21;26.63;;;14.32;;
80732;SDS011;70130;44.534;18.678;2024-03-06T12:22:53;27.95;;;14.73;;
80732;SDS011;70130;44.534;18.678;2024-03-06T12:25:21;24.27;;;13.65;;
80732;SDS011;70130;44.534;18.678;2024-03-06T12:27:48;20.98;;;13.13;;
80732;SDS011;70130;44.534;18.678;2024-03-06T12:30:19;21.00;;;12.50;;
80732;SDS011;70130;44.534;18.678;2024-03-06T12:35:26;18.73;;;11.52;;
80732;SDS011;70130;44.534;18.678;2024-03-06T12:37:52;23.20;;;11.45;;
80732;SDS011;70130;44.534;18.678;2024-03-06T12:40:18;18.05;;;11.52;;
80732;SDS011;70130;44.534;18.678;2024-03-06T12:42:45;15.55;;;9.75;;
80732;SDS011;70130;44.534;18.678;2024-03-06T12:45:11;17.15;;;9.95;;
80732;SDS011;70130;44.534;18.678;2024-03-06T12:47:44;20.40;;;11.07;;
80732;SDS011;70130;44.534;18.678;2024-03-06T12:50:14;23.17;;;11.20;;
80732;SDS011;70130;44.534;18.678;2024-03-06T12:52:40;20.38;;;12.18;;
80732;SDS011;70130;44.534;18.678;2024-03-06T12:55:07;20.67;;;11.13;;
80732;SDS011;70130;44.534;18.678;2024-03-06T12:57:36;18.67;;;10.48;;
80732;SDS011;70130;44.534;18.678;2024-03-06T13:00:01;21.90;;;12.35;;
80732;SDS011;70130;44.534;18.678;2024-03-06T13:02:28;21.95;;;12.30;;
80732;SDS011;70130;44.534;18.678;2024-03-06T13:04:53;19.83;;;12.98;;
80732;SDS011;70130;44.534;18.678;2024-03-06T13:07:19;19.77;;;11.35;;
80732;SDS011;70130;44.534;18.678;2024-03-06T13:09:45;25.40;;;15.27;;
80732;SDS011;70130;44.534;18.678;2024-03-06T13:12:11;25.67;;;15.30;;
80732;SDS011;70130;44.534;18.678;2024-03-06T13:14:36;33.55;;;15.90;;
80732;SDS011;70130;44.534;18.678;2024-03-06T13:17:02;26.08;;;15.73;;
80732;SDS011;70130;44.534;18.678;2024-03-06T13:19:28;28.02;;;15.48;;
80732;SDS011;70130;44.534;18.678;2024-03-06T13:21:54;25.20;;;14.43;;
80732;SDS011;70130;44.534;18.678;2024-03-06T13:24:20;27.95;;;14.65;;
80732;SDS011;70130;44.534;18.678;2024-03-06T13:26:46;23.23;;;14.20;;
80732;SDS011;70130;44.534;18.678;2024-03-06T13:29:12;23.90;;;15.00;;
80732;SDS011;70130;44.534;18.678;2024-03-06T13:31:38;23.92;;;14.85;;
80732;SDS011;70130;44.534;18.678;2024-03-06T13:34:04;20.40;;;14.05;;
80732;SDS011;70130;44.534;18.678;2024-03-06T13:36:29;26.27;;;16.02;;
80732;SDS011;70130;44.534;18.678;2024-03-06T13:38:55;19.40;;;13.00;;
80732;SDS011;70130;44.534;18.678;2024-03-06T13:41:22;25.83;;;13.30;;
80732;SDS011;70130;44.534;18.678;2024-03-06T13:43:47;22.77;;;14.82;;
80732;SDS011;70130;44.534;18.678;2024-03-06T13:46:17;22.15;;;14.40;;
80732;SDS011;70130;44.534;18.678;2024-03-06T13:48:47;18.95;;;11.95;;
80732;SDS011;70130;44.534;18.678;2024-03-06T13:51:13;21.38;;;11.90;;
80732;SDS011;70130;44.534;18.678;2024-03-06T13:53:39;23.10;;;12.80;;
80732;SDS011;70130;44.534;18.678;2024-03-06T13:56:04;22.20;;;11.38;;
80732;SDS011;70130;44.534;18.678;2024-03-06T13:58:30;24.95;;;13.65;;
80732;SDS011;70130;44.534;18.678;2024-03-06T14:00:56;18.55;;;12.68;;
80732;SDS011;70130;44.534;18.678;2024-03-06T14:03:21;25.23;;;13.57;;
80732;SDS011;70130;44.534;18.678;2024-03-06T14:05:47;24.60;;;13.88;;
80732;SDS011;70130;44.534;18.678;2024-03-06T14:08:13;20.75;;;12.02;;
80732;SDS011;70130;44.534;18.678;2024-03-06T14:10:39;23.27;;;13.20;;
80732;SDS011;70130;44.534;18.678;2024-03-06T14:13:05;28.75;;;16.05;;
80732;SDS011;70130;44.534;18.678;2024-03-06T14:15:32;24.80;;;13.65;;
80732;SDS011;70130;44.534;18.678;2024-03-06T14:17:58;20.15;;;12.73;;
80732;SDS011;70130;44.534;18.678;2024-03-06T14:20:24;19.20;;;10.50;;